Valley, WA (99181)

1:45 AM PDT on July 30, 2016 (GMT -0700)
Dry Creek | | Change Station
Active Advisory: Fire Weather Warning

Elev 1886 ft 48.30 °N, 117.83 °W | Updated 27 seconds ago

Clear
Clear
61.5 °F
Feels Like 61.5 °F
N
1.7
Wind Variable Wind from South

Today
High -- | Low -- °F
--% Chance of Precip.
Yesterday
High -- | Low -- °F
Precip. -- in
Pressure 29.71 in
Visibility 10.0 miles
Clouds Clear
Dew Point 53 °F
Humidity 73%
Rainfall 0.58 in
Snow Depth Not available.
5:24 AM 8:29 PM
Waning Crescent, 15% visible
METAR KDEW 300753Z AUTO 06003KT 10SM CLR 16/11 A2976 RMK AO2 SLP059 T01610111 403560133
Pressure 29.71 in
Visibility 10.0 miles
Clouds Clear
Dew Point 53 °F
Humidity 73%
Rainfall 0.58 in
Snow Depth Not available.
5:24 AM 8:29 PM
Waning Crescent, 15% visible
METAR KDEW 300753Z AUTO 06003KT 10SM CLR 16/11 A2976 RMK AO2 SLP059 T01610111 403560133

10-Day Weather Forecast

Almanac

Astronomy

Jul. 30, 2016 Rise Set
Actual Time
Civil Twilight
Nautical Twilight
Astronomical Twilight
Moon
Length of Visible Light
Length of Day
Tomorrow will be .
, % of the Moon is Illuminated

Today's Extremes

State Highs State Lows

Community

WunderPhotos

Upload Photos

1,928,508 photos uploaded!

WunderBlog® & News

Nearby

Air Quality

  Air Quality AQ Index Pollutant
Not available.

Snow Depth

Station Depth Elevation

Earthquake Activity

City Distance Mag. Time & Date
Minimum magnitude displayed is 2.5.

Coastal Water Temperatures

Place Temperature

Stations

Nearby Weather Stations

Station Location Temp. Windchill Dew Point Humidity Wind Precip. Elev Updated Type
                   

Watches & Warnings

Fire Weather Warning
Issued: 10:49 PM PDT Jul. 29, 2016 – National Weather Service

... Red flag warning remains in effect from 1 PM to 9 PM PDT
Saturday for wind and low relative humidity for the south central
Cascade valleys... the central Cascade valleys... the northern
Columbia Basin... the Palouse and Spokane area...

* affected area: fire weather zone 673 East Washington northern
Columbia Basin (zone 673)... fire weather zone 674 East
Washington Palouse and Spokane area (zone 674)... fire weather
zone 676 East Washington south central Cascade valleys (zone
676) and fire weather zone 677 East Washington central Cascade
valleys (zone 677).

* Winds: west 15 to 20 mph with gusts up to 30 mph.

* Relative humidities: 11 to 22 percent.

* Impacts: dry and breezy conditions will lead to the rapid
spread of any new fire starts.

* Communities: Wenatchee... Entiat... Vantage... George... Ephrata...
   Moses Lake... Douglas... Waterville... Wilbur... Othello...
Ritzville... Coulee City... Ellensburg... Yakima.

Precautionary/preparedness actions...

A red flag warning means that critical fire weather conditions
are either occurring now... .or will shortly. A combination of
strong winds... low relative humidity... and warm temperatures can
contribute to extreme fire behavior.